AirNav   Air Wisconsin Up To $57,000 Bonus
 
 997 users online  

7NK2 Saratoga Hospital Heliport
Saratoga Springs, New York, USA

GOING TO SARATOGA SPRINGS?


FAA INFORMATION EFFECTIVE 07 NOVEMBER 2019

Location

FAA Identifier: 7NK2
Lat/Long: 43-05-11.9500N 073-48-05.0300W
43-05.199167N 073-48.083833W
43.0866528,-73.8013972
(estimated)
Elevation: 379 ft. / 116 m (estimated)
Variation: 14W (1995)
From city: 1 mile E of SARATOGA SPRINGS, NY
Time zone: UTC -5 (UTC -4 during Daylight Saving Time)
Zip code: 12866

Heliport Operations

Heliport use: Private use. Permission required prior to landing
Activation date: 09/1999
Control tower: no
ARTCC: BOSTON CENTER
FSS: BURLINGTON FLIGHT SERVICE STATION
Attendance: CONTINUOUS
Wind indicator: lighted
Segmented circle: no
Lights: ACTIVATE PERIMETER LGTS - 123.05.

Heliport Communications

UNICOM: 123.05
WX AWOS-3 at 5B2 (3 nm SW): 132.025 (518-884-9289)
WX AWOS-3 at SCH (15 nm S): 119.275 (518-399-6586)
WX ASOS at GFL (17 nm NE): 119.925 (518-743-1728)

Nearby radio navigation aids

VOR radial/distance  VOR name  Freq  Var
GFLr222/17.4GLENS FALLS VORTAC110.2014W
ALBr013/20.4ALBANY VORTAC115.3013W
CAMr299/20.8CAMBRIDGE VOR/DME115.0014W

 
NDB name  Hdg/Dist  Freq  Var  ID
GANSE234/13.320914WGF --. ..-.
HUNTER037/15.135614WHEU .... . ..-
JOHNSTOWN091/23.852314WJJH .--- .--- ....

Heliport Services

Runway Information

Helipad H1

Dimensions: 87 x 87 ft. / 27 x 27 m
Surface: asphalt, in good condition
Runway edge lights: PERI
Latitude: 43-05.199167N
Longitude: 073-48.083833W
Elevation: 379.0 ft.
Traffic pattern: leftleft

Heliport Ownership and Management from official FAA records

Ownership: Privately-owned
Owner: SARATOGA HOSPITAL & NURSING HOME
211 CHURCH ST
SARATOGA SPRINGS, NY 12866
Phone 518-587-3222
Manager: JEFFREY CASALE
211 CHURCH ST SE
SARATOGA SPRINGS, NY 12866
Phone (518) 580-2673

Heliport Operational Statistics

Aircraft based on the field: 3
Helicopters: 3
    

Additional Remarks

A52-H1 RY H1 16 FT LGT P0LE 160 FT E, 30 FT BLDG 500 FT NW.
FOR CD CTC ALBANY APCH AT 518-862-2299.

Instrument Procedures

There are no published instrument procedures at 7NK2.

Some nearby airports with instrument procedures:

5B2 - Saratoga County Airport (3 nm SW)
KSCH - Schenectady County Airport (15 nm S)
KGFL - Floyd Bennett Memorial Airport (17 nm NE)
KALB - Albany International Airport (20 nm S)
NY0 - Fulton County Airport (24 nm W)
 
Loc | Ops | Rwys | IFR | FBO | Links
Com | Nav | Svcs | Stats | Notes
Area around 7NK2 (Saratoga Hospital Heliport)
 
Road maps at: MapQuest Bing Google
 
Aerial photo
No photo
 
Sectional chart

 
Airport distance calculator
Flying to Saratoga Hospital Heliport? Find the distance to fly.

From to 7NK2

Sunrise and sunset
Times for 16-Nov-2019
 Local
(UTC-5)
 Zulu
(UTC)
Morning civil twilight06:1911:19
Sunrise06:5011:50
Sunset16:3021:30
Evening civil twilight17:0122:01

Current date and time
Zulu (UTC)  16-Nov-2019 21:23:32
Local (UTC-5)  16-Nov-2019 16:23:32
 
METAR
KSCH 
15nm S 
161847Z 06007KT 15SM SKC M01/M13 A3053
KGFL 
17nm NE 
162053Z AUTO 05009KT 10SM CLR M04/M16 A3052 RMK AO2 SLP346 T10391161 56012
KALB 
20nm S 
162051Z 02008KT 10SM CLR M01/M19 A3052 RMK AO2 SLP339 T10111194 56010
KNY0 
24nm W 
162055Z AUTO 15004KT 10SM CLR M02/M14 A3047 RMK AO2
KDDH 
27nm SE 
162054Z AUTO 33008KT 300V360 10SM CLR M02/M17 A3046 RMK AO2 SLP326 T10221167 56009
TAF
KGFL 
17nm NE 
161720Z 1618/1718 06007KT P6SM SKC FM162300 02004KT P6SM SKC FM171500 03006KT P6SM SCT250
KALB 
20nm S 
161720Z 1618/1718 36008G14KT P6SM SKC FM162300 36005KT P6SM SKC FM171600 03004KT P6SM SCT250
NOTAMs
Click for the latest NOTAMs
NOTAMs are issued by the DoD/FAA and will open in a separate window not controlled by AirNav.

 

 
 

Would you like to see your business listed on this page?

 If your business provides an interesting product or service to pilots, flight crews, aircraft, or users of the Saratoga Hospital Heliport, you should consider listing it here.  To start the listing process, click on the button below
 
Add a business
 

Other Pages about Saratoga Hospital Heliport

Update a link
 
Copyright © AirNav, LLC. All rights reserved. Privacy Policy  Contact